createdAt,value
2023-01-29T00:00:05.428Z,93
2023-01-29T00:16:02.628Z,93
2023-01-29T00:31:04.923Z,93
2023-01-29T00:46:01.936Z,93
2023-01-29T01:00:03.831Z,92
2023-01-29T01:16:01.197Z,92
2023-01-29T01:31:03.362Z,92
2023-01-29T01:46:07.911Z,92
2023-01-29T02:00:02.722Z,92
2023-01-29T02:16:04.997Z,92
2023-01-29T02:31:02.205Z,91
2023-01-29T02:46:04.522Z,91
2023-01-29T03:00:01.430Z,91
2023-01-29T03:16:03.908Z,91
2023-01-29T03:31:06.179Z,90
2023-01-29T03:46:03.236Z,90
2023-01-29T04:00:04.994Z,90
2023-01-29T04:16:02.185Z,89
2023-01-29T04:31:04.730Z,88
2023-01-29T04:46:01.609Z,88
2023-01-29T05:00:03.413Z,88
2023-01-29T05:16:05.743Z,87
2023-01-29T05:31:02.968Z,87
2023-01-29T05:46:04.907Z,87
2023-01-29T06:00:01.905Z,87
2023-01-29T06:16:04.066Z,87
2023-01-29T06:31:20.953Z,87
2023-01-29T06:46:05.779Z,88
2023-01-29T07:00:05.553Z,88
2023-01-29T07:16:03.018Z,88
2023-01-29T07:31:05.253Z,88
2023-01-29T07:46:03.121Z,88
2023-01-29T08:00:04.376Z,88
2023-01-29T08:16:01.703Z,87
2023-01-29T08:31:03.900Z,85
2023-01-29T08:46:01.047Z,83
2023-01-29T09:00:03.071Z,82
2023-01-29T09:16:05.228Z,80
2023-01-29T09:31:02.458Z,79
2023-01-29T09:46:04.500Z,79
2023-01-29T10:00:01.411Z,76
2023-01-29T10:16:03.741Z,75
2023-01-29T10:31:05.860Z,74
2023-01-29T10:46:02.914Z,72
2023-01-29T11:00:04.982Z,72
2023-01-29T11:16:02.273Z,72
2023-01-29T11:31:04.448Z,71
2023-01-29T11:46:01.811Z,71
2023-01-29T12:00:03.507Z,70
2023-01-29T12:16:05.655Z,72
2023-01-29T12:31:02.880Z,73
2023-01-29T12:46:04.914Z,72
2023-01-29T13:00:01.823Z,72
2023-01-29T13:16:04.293Z,70
2023-01-29T13:31:01.257Z,68
2023-01-29T13:46:03.864Z,66
2023-01-29T14:00:05.598Z,67
2023-01-29T14:16:05.344Z,66
2023-01-29T14:31:05.237Z,67
2023-01-29T14:46:02.275Z,67
2023-01-29T15:00:04.413Z,70
2023-01-29T15:16:01.657Z,73
2023-01-29T15:31:01.382Z,76
2023-01-29T15:46:01.170Z,77
2023-01-29T16:00:03.987Z,79
2023-01-29T16:16:05.545Z,81
2023-01-29T16:31:04.505Z,81
2023-01-29T16:46:06.051Z,83
2023-01-29T17:00:01.916Z,84
2023-01-29T17:16:04.369Z,85
2023-01-29T17:31:06.650Z,86
2023-01-29T17:46:03.520Z,87
2023-01-29T18:00:05.435Z,87
2023-01-29T18:16:02.671Z,87
2023-01-29T18:31:05.181Z,88
2023-01-29T18:46:02.175Z,88
2023-01-29T19:00:04.158Z,89
2023-01-29T19:16:01.148Z,90
2023-01-29T19:31:03.509Z,90
2023-01-29T19:46:05.545Z,91
2023-01-29T20:00:02.507Z,91
2023-01-29T20:16:05.072Z,91
2023-01-29T20:31:01.837Z,91
2023-01-29T20:46:04.092Z,91
2023-01-29T21:00:05.875Z,92
2023-01-29T21:16:03.177Z,92
2023-01-29T21:31:05.318Z,92
2023-01-29T21:46:02.395Z,92
2023-01-29T22:00:04.365Z,92
2023-01-29T22:16:02.065Z,92
2023-01-29T22:31:03.965Z,93
2023-01-29T22:46:06.015Z,93
2023-01-29T23:00:03.024Z,93
2023-01-29T23:16:05.182Z,93
2023-01-29T23:31:02.195Z,93
2023-01-29T23:46:04.232Z,93
